Time;durP1;ratioP1;P1;durP2;ratioP2;P2;SDS_P1;SDS_P2;PMS_P1;PMS_P2;Temp;Humidity;BMP_temperature;BMP_pressure;BME280_temperature;BME280_humidity;BME280_pressure;Samples;Min_cycle;Max_cycle;Signal;HPM_P1;HPM_P2
2023/09/04 00:01:24;;;;;;;;;;;;;;;17.85;100.00;99591.31;4992475;28;1936;-65
2023/09/04 00:03:52;;;;;;;;;;;;;;;17.62;100.00;99598.13;4992536;28;821;-65
2023/09/04 00:06:19;;;;;;;;;;;;;;;17.51;100.00;99590.91;4992846;28;857;-65
2023/09/04 00:08:45;;;;;;;;;;;;;;;17.49;100.00;99579.41;4992513;28;1254;-65
2023/09/04 00:11:12;;;;;;;;;;;;;;;17.48;100.00;99580.66;4992511;28;840;-65
2023/09/04 00:13:41;;;;;;;;;;;;;;;17.45;100.00;99573.19;4992339;28;860;-65
2023/09/04 00:16:08;;;;;;;;;;;;;;;17.43;100.00;99567.28;4992299;28;1251;-65
2023/09/04 00:18:34;;;;;;;;;;;;;;;17.39;100.00;99572.22;4992531;28;936;-65
2023/09/04 00:21:01;;;;;;;;;;;;;;;17.35;100.00;99574.38;4992477;28;1894;-66
2023/09/04 00:23:28;;;;;;;;;;;;;;;17.35;100.00;99569.56;4992379;28;1234;-66
2023/09/04 00:25:55;;;;;;;;;;;;;;;17.41;100.00;99564.16;4992058;28;1473;-65
2023/09/04 00:28:23;;;;;;;;;;;;;;;17.48;100.00;99560.34;4992684;28;830;-65
2023/09/04 00:30:50;;;;;;;;;;;;;;;17.47;100.00;99555.97;4992326;28;908;-65
2023/09/04 00:33:17;;;;;;;;;;;;;;;17.45;100.00;99555.63;4992344;28;1305;-65
2023/09/04 00:35:44;;;;;;;;;;;;;;;17.47;100.00;99548.34;4992367;28;891;-65
2023/09/04 00:38:11;;;;;;;;;;;;;;;17.42;100.00;99551.75;4975164;28;1459;-65
2023/09/04 00:40:37;;;;;;;;;;;;;;;17.34;100.00;99542.84;4974939;28;1280;-65
2023/09/04 00:43:05;;;;;;;;;;;;;;;17.28;100.00;99546.69;4992243;28;1974;-65
2023/09/04 00:45:34;;;;;;;;;;;;;;;17.22;100.00;99543.72;4992289;28;1193;-65
2023/09/04 00:48:02;;;;;;;;;;;;;;;17.20;100.00;99535.00;4992219;28;848;-66
2023/09/04 00:50:29;;;;;;;;;;;;;;;17.21;100.00;99541.34;4992068;28;901;-65
2023/09/04 00:53:02;;;;;;;;;;;;;;;17.19;100.00;99538.25;4992146;28;848;-65
2023/09/04 01:27:14;;;;;;;;;;;;;;;19.54;100.00;99507.44;4970784;28;784;-68
2023/09/04 01:29:42;;;;;;;;;;;;;;;19.54;100.00;99501.84;4975874;28;867;-68
2023/09/04 01:32:09;;;;;;;;;;;;;;;19.57;100.00;99502.91;4975874;28;871;-70
2023/09/04 01:34:39;;;;;;;;;;;;;;;19.63;100.00;99498.22;4975811;28;815;-66
2023/09/04 01:37:07;;;;;;;;;;;;;;;19.75;100.00;99507.72;4975950;28;859;-67
2023/09/04 01:39:37;;;;;;;;;;;;;;;19.85;100.00;99502.84;4975643;28;889;-67
2023/09/04 01:42:04;;;;;;;;;;;;;;;19.85;100.00;99495.22;4975857;28;1911;-67
2023/09/04 01:44:31;;;;;;;;;;;;;;;19.82;100.00;99496.13;4975646;28;847;-67
2023/09/04 01:46:58;;;;;;;;;;;;;;;19.81;100.00;99494.59;4975523;28;890;-67
2023/09/04 01:49:25;;;;;;;;;;;;;;;19.83;100.00;99485.72;4975657;28;801;-68
2023/09/04 01:51:53;;;;;;;;;;;;;;;19.86;100.00;99485.53;4975495;28;844;-67
2023/09/04 01:54:20;;;;;;;;;;;;;;;19.90;100.00;99488.16;4975574;28;858;-67
2023/09/04 01:56:47;;;;;;;;;;;;;;;19.96;100.00;99487.03;4974954;28;891;-70
2023/09/04 01:59:14;;;;;;;;;;;;;;;20.14;100.00;99496.63;4975367;28;934;-66
2023/09/04 02:01:40;;;;;;;;;;;;;;;20.19;100.00;99493.94;4973841;28;1878;-66
2023/09/04 02:04:07;;;;;;;;;;;;;;;20.23;100.00;99499.38;4975298;28;907;-66
2023/09/04 02:06:34;;;;;;;;;;;;;;;20.27;100.00;99499.19;4975141;28;973;-66
2023/09/04 02:09:02;;;;;;;;;;;;;;;20.31;100.00;99494.97;4975389;28;829;-66
2023/09/04 02:11:29;;;;;;;;;;;;;;;20.33;100.00;99497.28;4975087;28;844;-68
2023/09/04 02:13:56;;;;;;;;;;;;;;;20.37;100.00;99501.47;4974989;28;950;-66
2023/09/04 02:16:22;;;;;;;;;;;;;;;;;;4975165;28;816;-66
2023/09/04 02:18:48;;;;;;;;;;;;;;;20.21;100.00;99490.66;4974925;28;1004;-66
2023/09/04 02:21:15;;;;;;;;;;;;;;;20.14;100.00;99493.81;4974901;28;1886;-66
2023/09/04 02:23:42;;;;;;;;;;;;;;;20.06;100.00;99492.63;4974935;28;896;-66
2023/09/04 02:26:09;;;;;;;;;;;;;;;19.97;100.00;99497.03;5003093;28;1225;-69
2023/09/04 02:28:36;;;;;;;;;;;;;;;19.89;100.00;99489.44;5013795;28;879;-65
2023/09/04 02:31:08;;;;;;;;;;;;;;;19.83;100.00;99497.72;5013681;28;919;-65
2023/09/04 02:33:35;;;;;;;;;;;;;;;19.74;100.00;99495.72;5013744;28;867;-68
2023/09/04 02:36:02;;;;;;;;;;;;;;;19.74;100.00;99494.94;5013559;28;856;-66
2023/09/04 02:38:30;;;;;;;;;;;;;;;19.70;100.00;99486.69;5013190;28;886;-64
2023/09/04 02:40:57;;;;;;;;;;;;;;;19.63;100.00;99491.81;5013537;28;839;-66
2023/09/04 02:43:23;;;;;;;;;;;;;;;19.55;100.00;99489.38;5013620;28;1971;-65
2023/09/04 02:45:51;;;;;;;;;;;;;;;19.51;100.00;99491.56;5013376;28;868;-66
2023/09/04 02:48:18;;;;;;;;;;;;;;;19.51;100.00;99483.16;5013431;28;824;-67
2023/09/04 02:50:44;;;;;;;;;;;;;;;19.48;100.00;99491.72;5013369;28;821;-67
2023/09/04 02:53:11;;;;;;;;;;;;;;;19.46;100.00;99481.00;5013174;28;843;-65
2023/09/04 02:55:38;;;;;;;;;;;;;;;19.43;100.00;99473.50;5013482;28;856;-67
2023/09/04 02:58:05;;;;;;;;;;;;;;;19.41;100.00;99478.03;5013203;28;1040;-66
2023/09/04 03:00:31;;;;;;;;;;;;;;;19.37;100.00;99475.41;5013206;28;836;-65
2023/09/04 03:02:57;;;;;;;;;;;;;;;19.43;100.00;99481.16;5013041;28;1894;-66
2023/09/04 03:05:25;;;;;;;;;;;;;;;19.44;100.00;99482.69;5013165;28;839;-69
2023/09/04 03:07:52;;;;;;;;;;;;;;;19.45;100.00;99485.03;5013013;28;829;-67
2023/09/04 03:10:19;;;;;;;;;;;;;;;19.44;100.00;99485.50;5013142;28;880;-66
2023/09/04 03:12:46;;;;;;;;;;;;;;;19.50;100.00;99480.81;5012944;28;871;-66
2023/09/04 03:15:13;;;;;;;;;;;;;;;19.42;100.00;99488.03;5012878;28;855;-66
2023/09/04 03:17:41;;;;;;;;;;;;;;;19.40;100.00;99484.91;5012851;28;851;-67
2023/09/04 03:20:10;;;;;;;;;;;;;;;19.39;100.00;99484.09;5012876;28;895;-65
2023/09/04 03:22:37;;;;;;;;;;;;;;;19.35;100.00;99487.09;5012642;28;1898;-64
2023/09/04 03:25:03;;;;;;;;;;;;;;;19.30;100.00;99484.13;5012625;28;1360;-69
2023/09/04 03:27:30;;;;;;;;;;;;;;;19.24;100.00;99486.03;4995095;28;1191;-69
2023/09/04 03:29:57;;;;;;;;;;;;;;;19.21;100.00;99481.38;5012941;28;840;-65
2023/09/04 03:32:24;;;;;;;;;;;;;;;19.13;100.00;99476.06;5012626;28;820;-66
2023/09/04 03:34:51;;;;;;;;;;;;;;;19.08;100.00;99479.50;4994993;28;1302;-65
2023/09/04 03:37:18;;;;;;;;;;;;;;;19.04;100.00;99486.53;5012602;28;976;-66
2023/09/04 03:39:45;;;;;;;;;;;;;;;18.96;100.00;99484.03;5012434;28;879;-67
2023/09/04 03:42:12;;;;;;;;;;;;;;;18.88;100.00;99484.81;4994856;28;1983;-66
2023/09/04 03:44:39;;;;;;;;;;;;;;;18.80;100.00;99475.16;4994772;28;1249;-66
2023/09/04 03:47:06;;;;;;;;;;;;;;;18.73;100.00;99482.63;5012438;28;1133;-66
2023/09/04 03:49:32;;;;;;;;;;;;;;;18.75;100.00;99470.94;5011635;28;844;-66
2023/09/04 03:51:59;;;;;;;;;;;;;;;18.73;100.00;99482.63;5012263;28;894;-66
2023/09/04 03:54:29;;;;;;;;;;;;;;;18.75;100.00;99480.13;5012309;28;824;-66
2023/09/04 03:56:56;;;;;;;;;;;;;;;18.79;100.00;99468.03;5012276;28;891;-66
2023/09/04 03:59:23;;;;;;;;;;;;;;;18.82;100.00;99472.69;5012270;28;887;-68
2023/09/04 04:01:51;;;;;;;;;;;;;;;18.90;100.00;99463.50;5012166;28;1886;-67
2023/09/04 04:04:18;;;;;;;;;;;;;;;18.92;100.00;99458.19;5012310;28;1293;-67
2023/09/04 04:06:45;;;;;;;;;;;;;;;18.95;100.00;99462.88;5012174;28;1198;-66
2023/09/04 04:09:13;;;;;;;;;;;;;;;18.95;100.00;99468.47;5012203;28;1203;-66
2023/09/04 04:11:40;;;;;;;;;;;;;;;18.98;100.00;99467.53;5012244;28;907;-67
2023/09/04 04:14:07;;;;;;;;;;;;;;;19.04;100.00;99466.91;5012350;28;891;-69
2023/09/04 04:16:36;;;;;;;;;;;;;;;19.06;100.00;99459.59;5012614;28;849;-66
2023/09/04 04:19:04;;;;;;;;;;;;;;;19.10;100.00;99457.41;4994370;28;866;-65
2023/09/04 04:21:30;;;;;;;;;;;;;;;19.13;100.00;99452.88;5012155;28;1886;-71
2023/09/04 04:23:57;;;;;;;;;;;;;;;19.12;100.00;99443.72;5012313;28;1012;-67
2023/09/04 04:26:23;;;;;;;;;;;;;;;19.17;100.00;99456.31;5011611;28;1431;-66
2023/09/04 04:28:49;;;;;;;;;;;;;;;19.24;100.00;99452.41;5012088;28;891;-67
2023/09/04 04:31:16;;;;;;;;;;;;;;;19.26;100.00;99450.69;5012136;28;902;-65
2023/09/04 04:33:43;;;;;;;;;;;;;;;19.26;100.00;99461.88;5011995;28;891;-67
2023/09/04 04:36:09;;;;;;;;;;;;;;;19.33;100.00;99452.38;5012013;28;892;-67
2023/09/04 04:38:36;;;;;;;;;;;;;;;19.43;100.00;99450.31;5011952;28;1207;-65
2023/09/04 04:41:02;;;;;;;;;;;;;;;19.50;100.00;99450.78;5011810;28;828;-69
2023/09/04 04:43:29;;;;;;;;;;;;;;;19.53;100.00;99441.41;5011696;28;2012;-66
2023/09/04 04:58:07;;;;;;;;;;;;;;;20.13;100.00;99434.13;5011598;28;654;-67
2023/09/04 05:00:34;;;;;;;;;;;;;;;20.25;100.00;99432.34;5011862;28;1051;-65
2023/09/04 05:03:02;;;;;;;;;;;;;;;20.38;100.00;99421.63;5015389;28;1899;-64
2023/09/04 05:05:28;;;;;;;;;;;;;;;20.48;100.00;99432.78;5015395;28;824;-66
2023/09/04 05:07:56;;;;;;;;;;;;;;;20.67;100.00;99441.88;5015298;28;895;-65
2023/09/04 05:10:23;;;;;;;;;;;;;;;20.94;100.00;99450.03;5015288;28;861;-64
2023/09/04 05:12:50;;;;;;;;;;;;;;;21.20;100.00;99436.19;5015446;28;851;-64
2023/09/04 05:15:16;;;;;;;;;;;;;;;21.47;100.00;99436.41;5015207;28;816;-65
2023/09/04 05:17:43;;;;;;;;;;;;;;;21.68;100.00;99442.88;5015144;28;828;-68
2023/09/04 05:20:09;;;;;;;;;;;;;;;21.76;100.00;99435.56;5015082;28;895;-65
2023/09/04 05:22:37;;;;;;;;;;;;;;;21.74;100.00;99446.53;5014914;28;1882;-65
2023/09/04 05:25:04;;;;;;;;;;;;;;;21.76;100.00;99442.00;5014696;28;1357;-67
2023/09/04 05:27:31;;;;;;;;;;;;;;;21.93;100.00;99453.47;5015021;28;819;-66
2023/09/04 05:29:58;;;;;;;;;;;;;;;22.09;100.00;99459.84;5014864;28;847;-65
2023/09/04 05:32:25;;;;;;;;;;;;;;;22.16;100.00;99470.69;5014781;28;901;-64
2023/09/04 05:34:53;;;;;;;;;;;;;;;22.12;100.00;99459.63;5014876;28;875;-66
2023/09/04 05:37:19;;;;;;;;;;;;;;;21.78;100.00;99459.13;5014726;28;824;-65
2023/09/04 05:39:45;;;;;;;;;;;;;;;21.41;100.00;99472.84;5014672;28;874;-65
2023/09/04 05:42:12;;;;;;;;;;;;;;;21.47;100.00;99473.75;5014654;28;1914;-66
2023/09/04 05:44:39;;;;;;;;;;;;;;;21.55;100.00;99485.34;5014704;28;1064;-68
2023/09/04 05:47:06;;;;;;;;;;;;;;;21.68;100.00;99482.22;5014521;28;836;-71
2023/09/04 05:49:33;;;;;;;;;;;;;;;21.95;100.00;99475.50;5014545;28;816;-67
2023/09/04 05:52:00;;;;;;;;;;;;;;;22.33;100.00;99493.47;5014460;28;884;-66
2023/09/04 05:54:27;;;;;;;;;;;;;;;22.50;100.00;99490.88;5014448;28;825;-67
2023/09/04 05:56:54;;;;;;;;;;;;;;;22.61;100.00;99503.03;5014372;28;863;-64
2023/09/04 05:59:21;;;;;;;;;;;;;;;22.31;100.00;99504.44;5014348;28;867;-66
2023/09/04 06:01:47;;;;;;;;;;;;;;;22.25;100.00;99512.03;5014208;28;1952;-66
2023/09/04 06:04:14;;;;;;;;;;;;;;;21.88;100.00;99501.22;5014457;28;882;-67
2023/09/04 06:06:41;;;;;;;;;;;;;;;21.44;100.00;99513.28;5014283;28;840;-65
2023/09/04 06:09:07;;;;;;;;;;;;;;;21.22;100.00;99517.22;5014145;28;891;-66
2023/09/04 06:11:34;;;;;;;;;;;;;;;20.98;100.00;99520.88;5014153;28;883;-65
2023/09/04 06:14:07;;;;;;;;;;;;;;;21.02;100.00;99517.88;5013300;28;820;-67
2023/09/04 06:16:34;;;;;;;;;;;;;;;20.82;100.00;99515.69;5014054;28;899;-67
2023/09/04 06:19:01;;;;;;;;;;;;;;;20.76;100.00;99506.38;5013867;28;856;-66
2023/09/04 06:21:28;;;;;;;;;;;;;;;20.88;100.00;99510.19;5013840;28;1887;-65
2023/09/04 06:23:54;;;;;;;;;;;;;;;20.92;100.00;99517.16;5013884;28;950;-66
2023/09/04 06:26:21;;;;;;;;;;;;;;;20.83;100.00;99522.88;5013622;28;1493;-66
2023/09/04 06:28:48;;;;;;;;;;;;;;;20.84;100.00;99521.59;5013775;28;1132;-66
2023/09/04 06:31:15;;;;;;;;;;;;;;;20.90;100.00;99533.72;5013754;28;879;-66
2023/09/04 06:33:41;;;;;;;;;;;;;;;21.58;100.00;99541.41;5013623;28;817;-67
2023/09/04 06:36:08;;;;;;;;;;;;;;;22.29;100.00;99540.75;5013681;28;821;-67
2023/09/04 06:38:35;;;;;;;;;;;;;;;22.79;100.00;99544.22;5013663;28;841;-68
2023/09/04 06:41:02;;;;;;;;;;;;;;;23.31;100.00;99534.31;5013719;28;867;-67
2023/09/04 06:43:29;;;;;;;;;;;;;;;23.81;100.00;99537.63;5013451;28;1973;-68
2023/09/04 06:45:58;;;;;;;;;;;;;;;23.33;100.00;99523.31;5013448;28;848;-66
2023/09/04 06:48:26;;;;;;;;;;;;;;;22.38;100.00;99512.44;5013385;28;867;-71
2023/09/04 06:50:53;;;;;;;;;;;;;;;22.39;100.00;99525.28;4995837;28;1211;-69
2023/09/04 06:53:20;;;;;;;;;;;;;;;22.08;100.00;99518.16;5013279;28;824;-67
2023/09/04 06:55:49;;;;;;;;;;;;;;;21.71;100.00;99529.09;5013342;28;911;-68
2023/09/04 06:58:16;;;;;;;;;;;;;;;22.08;100.00;99537.84;5013713;28;887;-68
2023/09/04 07:00:42;;;;;;;;;;;;;;;22.43;100.00;99545.56;5013458;28;891;-66
2023/09/04 07:03:08;;;;;;;;;;;;;;;22.70;100.00;99543.59;5013237;28;1898;-68
2023/09/04 07:05:35;;;;;;;;;;;;;;;22.86;100.00;99545.09;5013049;28;898;-67
2023/09/04 07:08:04;;;;;;;;;;;;;;;22.67;100.00;99539.72;4995577;28;1318;-68
2023/09/04 07:10:31;;;;;;;;;;;;;;;22.79;100.00;99544.22;5013335;28;1202;-69
2023/09/04 07:13:00;;;;;;;;;;;;;;;22.95;100.00;99540.06;5013248;28;836;-68
2023/09/04 07:15:27;;;;;;;;;;;;;;;22.08;100.00;99529.41;5012994;28;832;-69
2023/09/04 07:17:53;;;;;;;;;;;;;;;21.70;100.00;99562.06;5013018;28;824;-69
2023/09/04 07:20:20;;;;;;;;;;;;;;;21.59;100.00;99568.28;5012775;28;847;-69
2023/09/04 07:22:47;;;;;;;;;;;;;;;22.37;100.00;99562.38;5012988;28;1889;-70
2023/09/04 07:25:13;;;;;;;;;;;;;;;23.27;100.00;99568.38;5012855;28;1369;-67
2023/09/04 07:27:40;;;;;;;;;;;;;;;23.19;100.00;99570.06;5013037;28;832;-70
2023/09/04 07:30:07;;;;;;;;;;;;;;;22.97;100.00;99571.34;5012979;28;923;-66
2023/09/04 07:32:34;;;;;;;;;;;;;;;23.71;100.00;99583.44;5012977;28;850;-67
2023/09/04 07:35:01;;;;;;;;;;;;;;;24.03;100.00;99604.00;5013203;28;800;-67
2023/09/04 07:37:28;;;;;;;;;;;;;;;24.22;100.00;99615.72;5012648;28;1200;-68
2023/09/04 07:39:56;;;;;;;;;;;;;;;25.37;100.00;99606.06;5012750;28;1247;-71
2023/09/04 07:42:23;;;;;;;;;;;;;;;26.11;100.00;99614.69;5012458;28;1987;-69
2023/09/04 07:44:49;;;;;;;;;;;;;;;26.67;100.00;99623.91;5012408;28;816;-68
2023/09/04 07:47:16;;;;;;;;;;;;;;;26.86;100.00;99618.44;5012402;28;868;-70
2023/09/04 07:49:43;;;;;;;;;;;;;;;27.05;100.00;99612.16;5012224;28;886;-69
2023/09/04 07:52:10;;;;;;;;;;;;;;;26.94;100.00;99626.41;5012314;28;887;-71
2023/09/04 07:54:36;;;;;;;;;;;;;;;25.82;100.00;99636.53;5012484;28;796;-69
2023/09/04 07:57:05;;;;;;;;;;;;;;;24.32;100.00;99627.56;5012091;28;945;-69
2023/09/04 07:59:32;;;;;;;;;;;;;;;23.72;100.00;99636.53;5012197;28;883;-68
2023/09/04 08:01:58;;;;;;;;;;;;;;;24.20;100.00;99624.66;5012241;28;1898;-71
2023/09/04 08:04:26;;;;;;;;;;;;;;;24.44;100.00;99629.97;5011716;28;1134;-69
2023/09/04 08:06:54;;;;;;;;;;;;;;;23.64;100.00;99626.94;5012093;28;883;-69
2023/09/04 08:09:21;;;;;;;;;;;;;;;22.99;100.00;99633.63;5011799;28;932;-69
2023/09/04 08:11:48;;;;;;;;;;;;;;;22.80;100.00;99627.47;5011877;28;887;-67
